createdAt,value
2022-11-16T00:00:27.028Z,100.00
2022-11-16T00:02:56.862Z,100.00
2022-11-16T00:05:28.368Z,100.00
2022-11-16T00:07:57.344Z,100.00
2022-11-16T00:10:26.076Z,100.00
2022-11-16T00:12:54.491Z,100.00
2022-11-16T00:15:22.928Z,100.00
2022-11-16T00:17:51.369Z,100.00
2022-11-16T00:20:21.152Z,100.00
2022-11-16T00:22:49.610Z,100.00
2022-11-16T00:25:18.020Z,100.00
2022-11-16T00:27:46.400Z,100.00
2022-11-16T00:30:15.306Z,100.00
2022-11-16T00:32:44.179Z,100.00
2022-11-16T00:35:12.565Z,100.00
2022-11-16T00:37:44.712Z,100.00
2022-11-16T00:40:15.301Z,100.00
2022-11-16T00:42:43.877Z,100.00
2022-11-16T00:45:12.667Z,100.00
2022-11-16T00:47:41.250Z,100.00
2022-11-16T00:50:10.211Z,100.00
2022-11-16T00:52:38.762Z,100.00
2022-11-16T00:55:09.817Z,100.00
2022-11-16T00:57:38.420Z,100.00
2022-11-16T01:00:07.781Z,100.00
2022-11-16T01:02:36.922Z,100.00
2022-11-16T01:05:05.982Z,100.00
2022-11-16T01:07:35.962Z,100.00
2022-11-16T01:10:06.065Z,100.00
2022-11-16T01:12:35.137Z,100.00
2022-11-16T01:15:04.047Z,100.00
2022-11-16T01:17:32.709Z,100.00
2022-11-16T01:20:01.178Z,100.00
2022-11-16T01:22:31.493Z,100.00
2022-11-16T01:25:00.506Z,100.00
2022-11-16T01:27:29.210Z,100.00
2022-11-16T01:30:01.051Z,100.00
2022-11-16T01:32:29.611Z,100.00
2022-11-16T01:34:58.535Z,100.00
2022-11-16T01:37:33.346Z,100.00
2022-11-16T01:40:01.901Z,100.00
2022-11-16T01:42:33.693Z,100.00
2022-11-16T01:45:09.256Z,100.00
2022-11-16T01:47:37.758Z,100.00
2022-11-16T01:50:10.907Z,100.00
2022-11-16T01:52:44.335Z,100.00
2022-11-16T01:55:13.774Z,100.00
2022-11-16T01:57:56.541Z,100.00
2022-11-16T02:00:33.180Z,100.00
2022-11-16T02:03:19.708Z,100.00
2022-11-16T02:06:04.083Z,100.00
2022-11-16T02:09:00.467Z,100.00
2022-11-16T02:11:54.239Z,100.00
2022-11-16T02:14:33.616Z,100.00
2022-11-16T02:17:09.187Z,100.00
2022-11-16T02:20:22.173Z,100.00
2022-11-16T02:23:13.403Z,100.00
2022-11-16T02:25:51.057Z,100.00
2022-11-16T02:28:30.335Z,100.00
2022-11-16T02:31:02.191Z,100.00
2022-11-16T02:33:36.025Z,100.00
2022-11-16T02:36:08.013Z,100.00
2022-11-16T02:38:38.786Z,100.00
2022-11-16T02:41:10.558Z,100.00
2022-11-16T02:43:42.713Z,100.00
2022-11-16T02:46:18.063Z,100.00
2022-11-16T02:48:49.489Z,100.00
2022-11-16T02:51:18.880Z,100.00
2022-11-16T02:53:59.334Z,100.00
2022-11-16T02:56:28.704Z,100.00
2022-11-16T02:58:58.076Z,100.00
2022-11-16T03:01:32.607Z,100.00
2022-11-16T03:04:04.260Z,100.00
2022-11-16T03:06:34.893Z,100.00
2022-11-16T03:09:06.476Z,100.00
2022-11-16T03:11:53.784Z,100.00
2022-11-16T03:14:24.916Z,100.00
2022-11-16T03:16:57.738Z,100.00
2022-11-16T03:19:31.260Z,100.00
2022-11-16T03:22:03.590Z,100.00
2022-11-16T03:24:33.354Z,100.00
2022-11-16T03:27:07.305Z,100.00
2022-11-16T03:29:40.936Z,100.00
2022-11-16T03:32:16.664Z,100.00
2022-11-16T03:34:49.657Z,100.00
2022-11-16T03:37:18.995Z,100.00
2022-11-16T03:39:47.656Z,100.00
2022-11-16T03:42:17.358Z,100.00
2022-11-16T03:44:46.863Z,100.00
2022-11-16T03:47:16.791Z,100.00
2022-11-16T03:49:46.518Z,100.00
2022-11-16T03:52:18.125Z,100.00
2022-11-16T03:54:46.848Z,100.00
2022-11-16T03:57:18.641Z,100.00
2022-11-16T03:59:53.005Z,100.00
2022-11-16T04:02:22.859Z,100.00
2022-11-16T04:05:22.132Z,100.00
2022-11-16T04:08:07.768Z,100.00
2022-11-16T04:10:53.746Z,100.00
2022-11-16T04:13:43.289Z,100.00
2022-11-16T04:16:29.573Z,100.00
2022-11-16T04:19:16.678Z,100.00
2022-11-16T04:22:03.324Z,100.00
2022-11-16T04:24:37.494Z,100.00
2022-11-16T04:27:31.512Z,100.00
2022-11-16T04:30:01.099Z,100.00
2022-11-16T04:32:49.732Z,100.00
2022-11-16T04:35:42.776Z,100.00
2022-11-16T04:38:11.930Z,100.00
2022-11-16T04:40:40.316Z,100.00
2022-11-16T04:43:11.192Z,100.00
2022-11-16T04:45:59.594Z,100.00
2022-11-16T04:48:35.775Z,100.00
2022-11-16T04:51:06.284Z,100.00
2022-11-16T04:53:35.588Z,100.00
2022-11-16T04:56:12.578Z,100.00
2022-11-16T04:58:40.951Z,100.00
2022-11-16T05:01:10.885Z,100.00
2022-11-16T05:03:39.496Z,100.00
2022-11-16T05:06:09.429Z,100.00
2022-11-16T05:08:37.743Z,100.00
2022-11-16T05:11:07.182Z,100.00
2022-11-16T05:13:35.498Z,100.00
2022-11-16T05:16:04.555Z,100.00
2022-11-16T05:18:33.324Z,100.00
2022-11-16T05:21:00.869Z,100.00
2022-11-16T05:23:50.940Z,100.00
2022-11-16T05:26:22.442Z,100.00
2022-11-16T05:28:52.031Z,100.00
2022-11-16T05:31:20.531Z,100.00
2022-11-16T05:33:49.785Z,100.00
2022-11-16T05:36:19.385Z,100.00
2022-11-16T05:38:52.733Z,100.00
2022-11-16T05:41:25.841Z,100.00
2022-11-16T05:43:55.494Z,100.00
2022-11-16T05:46:24.406Z,100.00
2022-11-16T05:48:52.856Z,100.00
2022-11-16T05:51:21.612Z,100.00
2022-11-16T05:53:51.420Z,100.00
2022-11-16T05:56:23.376Z,100.00
2022-11-16T05:58:54.122Z,100.00
2022-11-16T06:01:22.603Z,100.00
2022-11-16T06:03:51.998Z,100.00
2022-11-16T06:07:26.334Z,81.43
2022-11-16T06:09:54.791Z,81.16
2022-11-16T06:12:23.679Z,81.26
2022-11-16T06:14:52.082Z,81.13
2022-11-16T06:17:20.592Z,81.28
2022-11-16T06:19:48.963Z,81.26
2022-11-16T06:22:17.299Z,81.35
2022-11-16T06:24:47.200Z,80.97
2022-11-16T06:27:16.112Z,80.88
2022-11-16T06:29:45.844Z,80.93
2022-11-16T06:32:14.792Z,81.16
2022-11-16T06:34:43.211Z,80.95
2022-11-16T06:37:12.788Z,81.18
2022-11-16T06:39:41.119Z,81.00
2022-11-16T06:42:11.800Z,80.70
2022-11-16T06:44:40.397Z,80.51
2022-11-16T06:47:10.836Z,80.38
2022-11-16T06:49:39.126Z,80.13
2022-11-16T06:52:15.008Z,79.56
2022-11-16T06:54:43.334Z,79.56
2022-11-16T06:57:14.031Z,79.20
2022-11-16T06:59:42.429Z,79.11
2022-11-16T07:02:11.479Z,78.81
2022-11-16T07:04:42.196Z,79.01
2022-11-16T07:07:10.676Z,78.67
2022-11-16T07:09:40.003Z,79.09
2022-11-16T07:12:09.209Z,78.72
2022-11-16T07:14:41.943Z,78.40
2022-11-16T07:17:11.819Z,78.50
2022-11-16T07:19:41.301Z,78.44
2022-11-16T07:22:09.588Z,78.23
2022-11-16T07:24:38.217Z,78.43
2022-11-16T07:27:06.761Z,78.05
2022-11-16T07:29:38.098Z,77.95
2022-11-16T07:32:26.413Z,78.15
2022-11-16T07:35:17.936Z,78.15
2022-11-16T07:37:46.346Z,77.69
2022-11-16T07:40:16.697Z,77.77
2022-11-16T07:42:46.590Z,77.69
2022-11-16T07:45:47.318Z,77.26
2022-11-16T07:48:18.580Z,77.38
2022-11-16T07:51:07.090Z,77.00
2022-11-16T07:53:40.656Z,77.21
2022-11-16T07:56:09.934Z,76.74
2022-11-16T07:58:39.221Z,76.17
2022-11-16T08:01:11.959Z,75.95
2022-11-16T08:03:43.276Z,75.77
2022-11-16T08:06:13.887Z,75.75
2022-11-16T08:08:43.821Z,75.77
2022-11-16T08:11:13.390Z,75.76
2022-11-16T08:13:42.899Z,75.47
2022-11-16T08:16:13.335Z,75.46
2022-11-16T08:18:44.213Z,75.38
2022-11-16T08:21:15.597Z,75.09
2022-11-16T08:23:46.039Z,74.90
2022-11-16T08:26:19.249Z,74.21
2022-11-16T08:28:54.061Z,74.06
2022-11-16T08:31:28.109Z,74.05
2022-11-16T08:34:04.942Z,73.44
2022-11-16T08:36:34.923Z,73.27
2022-11-16T08:39:04.260Z,73.27
2022-11-16T08:41:35.938Z,73.13
2022-11-16T08:44:04.736Z,73.15
2022-11-16T08:46:35.615Z,72.72
2022-11-16T08:49:18.697Z,72.64
2022-11-16T08:51:47.460Z,72.73
2022-11-16T08:54:15.936Z,72.17
2022-11-16T08:56:45.253Z,72.30
2022-11-16T08:59:13.807Z,72.26
2022-11-16T09:01:47.739Z,72.22
2022-11-16T09:04:16.106Z,71.41
2022-11-16T09:06:46.192Z,71.77
2022-11-16T09:09:14.517Z,71.77
2022-11-16T09:11:43.502Z,71.65
2022-11-16T09:14:11.839Z,71.78
2022-11-16T09:16:41.548Z,71.64
2022-11-16T09:19:10.887Z,71.59
2022-11-16T09:21:39.215Z,71.84
2022-11-16T09:24:09.142Z,72.15
2022-11-16T09:26:37.603Z,70.72
2022-11-16T09:29:05.975Z,71.12
2022-11-16T09:31:37.415Z,71.17
2022-11-16T09:34:05.789Z,70.64
2022-11-16T09:36:34.440Z,68.89
2022-11-16T09:39:30.488Z,69.09
2022-11-16T09:42:15.822Z,67.51
2022-11-16T09:44:56.012Z,67.41
2022-11-16T09:47:28.119Z,65.92
2022-11-16T09:50:03.913Z,66.05
2022-11-16T09:52:35.890Z,66.29
2022-11-16T09:55:19.524Z,66.35
2022-11-16T09:57:49.448Z,65.06
2022-11-16T10:00:23.001Z,66.27
2022-11-16T10:03:00.821Z,66.65
2022-11-16T10:05:32.712Z,66.15
2022-11-16T10:08:06.082Z,65.72
2022-11-16T10:10:38.759Z,65.95
2022-11-16T10:13:13.987Z,65.55
2022-11-16T10:15:52.030Z,65.40
2022-11-16T10:18:28.556Z,66.01
2022-11-16T10:21:21.532Z,66.42
2022-11-16T10:24:01.381Z,66.03
2022-11-16T10:26:35.986Z,66.46
2022-11-16T10:29:19.769Z,65.81
2022-11-16T10:32:02.505Z,65.86
2022-11-16T10:34:45.100Z,65.21
2022-11-16T10:37:16.030Z,65.12
2022-11-16T10:39:44.430Z,65.11
2022-11-16T10:42:15.816Z,64.61
2022-11-16T10:44:48.172Z,64.84
2022-11-16T10:47:19.960Z,64.81
2022-11-16T10:49:53.566Z,64.08
2022-11-16T10:52:22.302Z,64.31
2022-11-16T10:54:50.807Z,64.44
2022-11-16T10:57:19.224Z,64.73
2022-11-16T10:59:50.166Z,64.90
2022-11-16T11:02:34.749Z,64.62
2022-11-16T11:05:05.745Z,63.97
2022-11-16T11:07:35.721Z,64.05
2022-11-16T11:10:04.892Z,62.71
2022-11-16T11:12:39.363Z,63.52
2022-11-16T11:15:26.254Z,62.92
2022-11-16T11:18:13.667Z,62.78
2022-11-16T11:20:45.284Z,63.07
2022-11-16T11:23:16.512Z,62.60
2022-11-16T11:25:51.997Z,62.14
2022-11-16T11:31:22.607Z,61.75
2022-11-16T11:33:53.580Z,62.05
2022-11-16T11:36:23.087Z,61.69
2022-11-16T11:39:00.316Z,61.70
2022-11-16T11:41:30.055Z,61.89
2022-11-16T11:44:06.080Z,61.80
2022-11-16T11:47:18.261Z,62.39
2022-11-16T11:49:33.384Z,62.02
2022-11-16T11:52:06.056Z,62.10
2022-11-16T11:54:41.677Z,61.66
2022-11-16T11:57:15.745Z,61.82
2022-11-16T11:59:44.185Z,62.57
2022-11-16T12:02:26.700Z,62.68
2022-11-16T12:05:21.744Z,62.18
2022-11-16T12:08:02.742Z,61.98
2022-11-16T12:10:37.740Z,62.50
2022-11-16T12:13:09.830Z,62.62
2022-11-16T12:15:47.911Z,62.51
2022-11-16T12:18:35.045Z,62.64
2022-11-16T12:21:11.230Z,62.42
2022-11-16T12:23:51.598Z,62.84
2022-11-16T12:26:26.280Z,63.30
2022-11-16T12:29:04.669Z,63.48
2022-11-16T12:31:43.721Z,63.56
2022-11-16T12:34:17.230Z,63.62
2022-11-16T12:36:53.035Z,63.87
2022-11-16T12:39:24.758Z,64.20
2022-11-16T12:42:11.344Z,64.74
2022-11-16T12:45:07.925Z,64.74
2022-11-16T12:47:44.576Z,64.50
2022-11-16T12:50:27.459Z,64.82
2022-11-16T12:53:16.336Z,64.76
2022-11-16T12:55:50.401Z,64.25
2022-11-16T12:58:22.514Z,63.58
2022-11-16T13:00:59.693Z,63.77
2022-11-16T13:03:35.946Z,63.87
2022-11-16T13:06:08.158Z,64.14
2022-11-16T13:08:48.409Z,63.89
2022-11-16T13:11:20.320Z,64.53
2022-11-16T13:13:53.452Z,64.58
2022-11-16T13:16:22.901Z,63.96
2022-11-16T13:18:51.852Z,65.08
2022-11-16T13:21:30.028Z,65.06
2022-11-16T13:24:08.753Z,64.94
2022-11-16T13:26:42.317Z,64.35
2022-11-16T13:29:16.496Z,64.63
2022-11-16T13:31:51.031Z,64.74
2022-11-16T13:34:24.048Z,64.88
2022-11-16T13:36:53.784Z,64.36
2022-11-16T13:39:24.048Z,64.55
2022-11-16T13:42:01.040Z,65.28
2022-11-16T13:44:31.466Z,64.96
2022-11-16T13:47:04.754Z,65.00
2022-11-16T13:49:35.865Z,65.23
2022-11-16T13:52:22.528Z,65.65
2022-11-16T13:54:53.991Z,65.13
2022-11-16T13:57:25.621Z,65.38
2022-11-16T14:00:06.726Z,65.42
2022-11-16T14:02:36.669Z,65.72
2022-11-16T14:05:06.740Z,66.32
2022-11-16T14:07:40.713Z,66.13
2022-11-16T14:10:09.198Z,66.55
2022-11-16T14:12:51.639Z,66.34
2022-11-16T14:15:21.349Z,66.42
2022-11-16T14:18:01.971Z,66.30
2022-11-16T14:20:42.003Z,66.23
2022-11-16T14:23:22.469Z,66.29
2022-11-16T14:25:54.674Z,66.50
2022-11-16T14:28:47.452Z,66.36
2022-11-16T14:31:21.723Z,66.20
2022-11-16T14:33:52.378Z,66.17
2022-11-16T14:36:36.185Z,66.07
2022-11-16T14:39:26.328Z,66.42
2022-11-16T14:41:55.077Z,66.66
2022-11-16T14:44:26.729Z,66.46
2022-11-16T14:46:55.177Z,66.67
2022-11-16T14:49:26.116Z,66.18
2022-11-16T14:51:57.359Z,66.31
2022-11-16T14:54:31.174Z,66.73
2022-11-16T14:57:01.146Z,66.64
2022-11-16T14:59:30.487Z,66.53
2022-11-16T15:01:59.603Z,66.73
2022-11-16T15:04:28.276Z,66.42
2022-11-16T15:06:59.099Z,66.18
2022-11-16T15:09:31.346Z,66.07
2022-11-16T15:12:18.066Z,66.33
2022-11-16T15:14:49.933Z,66.21
2022-11-16T15:17:20.493Z,65.98
2022-11-16T15:19:56.126Z,66.13
2022-11-16T15:22:26.160Z,66.02
2022-11-16T15:25:00.276Z,65.92
2022-11-16T15:27:35.792Z,66.22
2022-11-16T15:30:14.999Z,65.91
2022-11-16T15:32:44.425Z,65.99
2022-11-16T15:35:20.319Z,66.28
2022-11-16T15:37:48.758Z,66.08
2022-11-16T15:40:18.767Z,66.26
2022-11-16T15:42:47.161Z,66.02
2022-11-16T15:45:23.574Z,66.35
2022-11-16T15:47:53.894Z,66.33
2022-11-16T15:50:24.413Z,66.31
2022-11-16T15:52:55.374Z,66.55
2022-11-16T15:55:40.276Z,66.50
2022-11-16T15:58:15.104Z,66.17
2022-11-16T16:00:43.214Z,66.36
2022-11-16T16:03:20.772Z,66.50
2022-11-16T16:05:50.081Z,66.29
2022-11-16T16:08:31.192Z,66.23
2022-11-16T16:11:07.014Z,65.57
2022-11-16T16:13:37.361Z,65.48
2022-11-16T16:16:31.498Z,65.48
2022-11-16T16:19:08.201Z,65.37
2022-11-16T16:21:45.453Z,65.68
2022-11-16T16:24:35.480Z,66.23
2022-11-16T16:27:14.048Z,67.76
2022-11-16T16:29:42.466Z,68.95
2022-11-16T16:32:14.596Z,70.16
2022-11-16T16:34:42.979Z,71.83
2022-11-16T16:37:14.376Z,73.00
2022-11-16T16:39:42.770Z,73.41
2022-11-16T16:42:13.753Z,73.78
2022-11-16T16:44:42.918Z,73.93
2022-11-16T16:47:11.627Z,73.82
2022-11-16T16:49:40.070Z,73.78
2022-11-16T16:52:09.169Z,74.08
2022-11-16T16:54:37.540Z,74.27
2022-11-16T16:57:05.854Z,74.23
2022-11-16T16:59:36.418Z,74.58
2022-11-16T17:02:05.000Z,74.97
2022-11-16T17:04:37.075Z,75.21
2022-11-16T17:07:08.829Z,75.04
2022-11-16T17:09:37.234Z,74.55
2022-11-16T17:12:06.210Z,74.42
2022-11-16T17:14:36.391Z,73.89
2022-11-16T17:17:05.100Z,74.19
2022-11-16T17:19:33.493Z,74.20
2022-11-16T17:22:01.851Z,74.30
2022-11-16T17:24:30.234Z,74.35
2022-11-16T17:26:58.842Z,74.18
2022-11-16T17:29:29.654Z,74.52
2022-11-16T17:32:02.437Z,74.21
2022-11-16T17:34:31.191Z,74.30
2022-11-16T17:36:59.540Z,74.35
2022-11-16T17:39:27.904Z,73.97
2022-11-16T17:41:56.248Z,74.01
2022-11-16T17:44:24.655Z,73.87
2022-11-16T17:46:52.981Z,73.86
2022-11-16T17:49:22.773Z,73.97
2022-11-16T17:51:51.142Z,73.98
2022-11-16T17:54:19.575Z,73.97
2022-11-16T17:56:47.924Z,74.41
2022-11-16T17:59:16.275Z,74.32
2022-11-16T18:01:44.746Z,75.00
2022-11-16T18:04:13.165Z,75.02
2022-11-16T18:06:42.978Z,75.29
2022-11-16T18:09:11.316Z,75.51
2022-11-16T18:11:40.158Z,75.63
2022-11-16T18:14:10.611Z,75.95
2022-11-16T18:16:41.166Z,75.96
2022-11-16T18:19:12.250Z,76.34
2022-11-16T18:21:42.811Z,76.88
2022-11-16T18:24:11.509Z,76.85
2022-11-16T18:26:40.388Z,77.09
2022-11-16T18:29:12.297Z,77.26
2022-11-16T18:31:40.675Z,77.17
2022-11-16T18:34:09.075Z,77.61
2022-11-16T18:36:37.458Z,77.92
2022-11-16T18:39:08.377Z,78.03
2022-11-16T18:41:36.779Z,78.00
2022-11-16T18:44:06.348Z,78.08
2022-11-16T18:46:34.701Z,78.38
2022-11-16T18:49:03.065Z,78.18
2022-11-16T18:51:31.383Z,78.20
2022-11-16T18:53:59.912Z,78.86
2022-11-16T18:56:29.718Z,78.74
2022-11-16T18:58:58.052Z,78.84
2022-11-16T19:01:27.709Z,79.04
2022-11-16T19:03:57.215Z,79.13
2022-11-16T19:06:29.371Z,79.32
2022-11-16T19:09:02.557Z,79.56
2022-11-16T19:11:32.529Z,79.88
2022-11-16T19:14:03.949Z,79.52
2022-11-16T19:16:33.609Z,79.88
2022-11-16T19:19:02.659Z,79.78
2022-11-16T19:21:40.244Z,79.51
2022-11-16T19:24:12.095Z,79.59
2022-11-16T19:26:42.035Z,79.74
2022-11-16T19:29:10.529Z,79.68
2022-11-16T19:31:38.927Z,79.64
2022-11-16T19:34:12.962Z,79.64
2022-11-16T19:36:41.438Z,79.50
2022-11-16T19:39:09.871Z,79.35
2022-11-16T19:41:38.251Z,79.21
2022-11-16T19:44:08.019Z,79.21
2022-11-16T19:46:39.444Z,79.06
2022-11-16T19:49:09.374Z,79.06
2022-11-16T19:51:38.481Z,78.95
2022-11-16T19:54:07.275Z,78.69
2022-11-16T19:56:35.648Z,78.41
2022-11-16T19:59:04.218Z,78.64
2022-11-16T20:01:34.190Z,78.33
2022-11-16T20:04:03.667Z,78.49
2022-11-16T20:06:33.761Z,78.68
2022-11-16T20:09:08.567Z,78.64
2022-11-16T20:11:38.369Z,78.62
2022-11-16T20:14:08.180Z,78.73
2022-11-16T20:16:39.591Z,79.00
2022-11-16T20:19:08.422Z,78.70
2022-11-16T20:21:38.511Z,78.90
2022-11-16T20:24:08.865Z,79.04
2022-11-16T20:26:38.303Z,79.33
2022-11-16T20:29:06.723Z,79.33
2022-11-16T20:31:35.468Z,79.31
2022-11-16T20:34:07.869Z,79.54
2022-11-16T20:36:36.331Z,79.71
2022-11-16T20:39:05.503Z,80.08
2022-11-16T20:41:34.871Z,79.57
2022-11-16T20:44:03.772Z,79.35
2022-11-16T20:46:34.334Z,79.42
2022-11-16T20:49:04.260Z,80.00
2022-11-16T20:51:32.624Z,80.08
2022-11-16T20:54:01.246Z,79.73
2022-11-16T20:56:29.709Z,79.96
2022-11-16T20:58:58.292Z,79.83
2022-11-16T21:01:31.685Z,79.64
2022-11-16T21:04:01.550Z,79.55
2022-11-16T21:06:31.584Z,79.38
2022-11-16T21:09:00.751Z,79.17
2022-11-16T21:11:30.657Z,78.85
2022-11-16T21:14:16.371Z,78.69
2022-11-16T21:16:44.958Z,78.65
2022-11-16T21:19:13.850Z,78.41
2022-11-16T21:21:43.587Z,77.78
2022-11-16T21:24:12.330Z,77.90
2022-11-16T21:26:40.658Z,78.21
2022-11-16T21:29:09.111Z,78.48
2022-11-16T21:31:38.315Z,78.71
2022-11-16T21:34:07.617Z,78.63
2022-11-16T21:36:36.309Z,78.63
2022-11-16T21:39:06.073Z,78.64
2022-11-16T21:41:34.801Z,78.61
2022-11-16T21:44:03.112Z,79.11
2022-11-16T21:46:31.445Z,79.29
2022-11-16T21:48:59.824Z,79.12
2022-11-16T21:51:28.335Z,79.31
2022-11-16T21:53:56.863Z,79.60
2022-11-16T21:56:27.348Z,79.37
2022-11-16T21:58:55.758Z,79.35
2022-11-16T22:01:24.781Z,79.30
2022-11-16T22:04:07.064Z,79.40
2022-11-16T22:06:52.815Z,79.64
2022-11-16T22:09:21.396Z,79.51
2022-11-16T22:11:51.088Z,79.47
2022-11-16T22:14:19.403Z,79.05
2022-11-16T22:16:47.727Z,78.94
2022-11-16T22:19:16.196Z,79.01
2022-11-16T22:21:44.572Z,78.85
2022-11-16T22:24:12.966Z,78.61
2022-11-16T22:26:41.542Z,78.79
2022-11-16T22:29:11.266Z,78.87
2022-11-16T22:31:40.291Z,78.66
2022-11-16T22:34:08.606Z,78.45
2022-11-16T22:36:36.909Z,78.49
2022-11-16T22:39:05.463Z,78.57
2022-11-16T22:41:33.762Z,78.75
2022-11-16T22:44:02.113Z,78.59
2022-11-16T22:46:31.813Z,78.87
2022-11-16T22:49:00.406Z,78.99
2022-11-16T22:51:29.715Z,79.21
2022-11-16T22:53:59.722Z,79.07
2022-11-16T22:56:28.916Z,79.32
2022-11-16T22:58:57.660Z,79.41
2022-11-16T23:01:26.157Z,79.49
2022-11-16T23:03:56.335Z,79.59
2022-11-16T23:06:24.750Z,79.70
2022-11-16T23:08:53.124Z,79.52
2022-11-16T23:11:40.168Z,79.63
2022-11-16T23:14:34.287Z,79.54
2022-11-16T23:17:02.807Z,79.34
2022-11-16T23:19:49.994Z,79.48
2022-11-16T23:22:37.477Z,79.21
2022-11-16T23:25:24.594Z,79.35
2022-11-16T23:27:56.674Z,79.30
2022-11-16T23:30:25.763Z,79.30
2022-11-16T23:32:54.162Z,79.70
2022-11-16T23:35:23.945Z,79.44
2022-11-16T23:37:54.206Z,79.47
2022-11-16T23:40:23.707Z,79.61
2022-11-16T23:43:10.721Z,79.74
2022-11-16T23:45:39.420Z,80.25
2022-11-16T23:48:08.605Z,80.14
2022-11-16T23:50:38.655Z,80.29
2022-11-16T23:53:09.736Z,80.87
2022-11-16T23:55:39.531Z,81.00
2022-11-16T23:58:08.596Z,80.94
